Time;durP1;ratioP1;P1;durP2;ratioP2;P2;SDS_P1;SDS_P2;PMS_P1;PMS_P2;Temp;Humidity;BMP_temperature;BMP_pressure;BME280_temperature;BME280_humidity;BME280_pressure;Samples;Min_cycle;Max_cycle;Signal;HPM_P1;HPM_P2
2023/05/15 00:01:35;;;;;;;9.40;8.20;;;10.70;99.90;;;;;;5093290;28;20212;-78
2023/05/15 00:04:03;;;;;;;11.97;8.30;;;10.90;99.90;;;;;;5093478;28;20217;-77
2023/05/15 00:06:30;;;;;;;10.93;7.97;;;11.00;99.90;;;;;;5094068;28;20582;-78
2023/05/15 00:08:57;;;;;;;11.57;8.17;;;11.00;99.90;;;;;;5072113;28;20222;-78
2023/05/15 00:11:26;;;;;;;12.50;7.77;;;11.00;99.90;;;;;;5085810;28;20213;-78
2023/05/15 00:13:53;;;;;;;9.87;8.00;;;10.80;99.90;;;;;;5094209;28;20248;-78
2023/05/15 00:16:20;;;;;;;10.87;7.80;;;10.90;99.90;;;;;;5094344;28;20204;-80
2023/05/15 00:18:47;;;;;;;11.23;8.63;;;11.00;99.90;;;;;;5094019;28;20578;-78
2023/05/15 00:21:15;;;;;;;11.60;8.77;;;11.00;99.90;;;;;;5093971;28;20281;-79
2023/05/15 00:23:42;;;;;;;11.33;8.27;;;10.90;99.90;;;;;;5093569;28;20349;-78
2023/05/15 00:26:09;;;;;;;12.07;8.23;;;10.90;99.90;;;;;;5089149;28;20651;-79
2023/05/15 00:28:36;;;;;;;11.07;8.07;;;10.80;99.90;;;;;;5094174;28;20202;-79
2023/05/15 00:31:03;;;;;;;9.57;7.83;;;10.80;99.90;;;;;;5074030;28;20224;-78
2023/05/15 00:33:30;;;;;;;11.97;8.37;;;10.60;99.90;;;;;;5074328;28;20707;-78
2023/05/15 00:35:56;;;;;;;9.03;7.63;;;10.60;99.90;;;;;;5093636;28;20270;-78
2023/05/15 00:38:25;;;;;;;9.30;7.93;;;10.50;99.90;;;;;;5094844;28;20717;-78
2023/05/15 00:40:53;;;;;;;10.97;7.87;;;10.60;99.90;;;;;;5074599;28;20209;-78
2023/05/15 00:43:20;;;;;;;10.70;8.40;;;10.70;99.90;;;;;;5073837;28;20252;-79
2023/05/15 00:45:48;;;;;;;11.80;8.60;;;10.50;99.90;;;;;;5073173;28;20214;-78
2023/05/15 00:48:16;;;;;;;12.13;8.80;;;10.50;99.90;;;;;;5088501;28;20648;-78
2023/05/15 00:50:43;;;;;;;11.90;8.43;;;10.30;99.90;;;;;;5094016;28;20198;-78
2023/05/15 00:53:11;;;;;;;12.60;8.53;;;10.30;99.90;;;;;;5094936;28;20227;-78
2023/05/15 00:55:40;;;;;;;11.77;8.53;;;10.30;99.90;;;;;;5086071;28;20288;-78
2023/05/15 00:58:09;;;;;;;11.43;8.30;;;10.20;99.90;;;;;;5074355;28;20209;-78
2023/05/15 01:00:36;;;;;;;11.30;8.27;;;10.30;99.90;;;;;;5079771;28;20201;-78
2023/05/15 01:03:06;;;;;;;12.17;8.90;;;10.40;99.90;;;;;;5097993;28;20588;-78
2023/05/15 01:05:33;;;;;;;12.90;8.80;;;10.40;99.90;;;;;;5098576;28;20248;-79
2023/05/15 01:08:06;;;;;;;13.33;9.60;;;10.50;99.90;;;;;;5097672;28;20201;-79
2023/05/15 01:10:34;;;;;;;11.70;9.27;;;10.50;99.90;;;;;;5082549;28;20224;-78
2023/05/15 01:13:03;;;;;;;11.60;8.43;;;10.50;99.90;;;;;;5097767;28;20222;-78
2023/05/15 01:15:30;;;;;;;12.43;9.23;;;10.40;99.90;;;;;;5097162;28;20563;-78
2023/05/15 01:17:56;;;;;;;13.33;9.30;;;10.50;99.90;;;;;;5096958;28;20198;-79
2023/05/15 01:20:24;;;;;;;13.00;9.23;;;10.30;99.90;;;;;;5097338;28;20259;-78
2023/05/15 01:23:10;;;;;;;12.97;9.17;;;10.50;99.90;;;;;;5097191;28;20229;-78
2023/05/15 01:26:11;;;;;;;13.63;9.43;;;10.40;99.90;;;;;;5097989;28;20212;-78
2023/05/15 01:28:43;;;;;;;15.50;8.93;;;10.50;99.90;;;;;;5095390;28;20621;-78
2023/05/15 01:31:15;;;;;;;12.77;9.20;;;10.50;99.90;;;;;;5077771;28;20202;-78
2023/05/15 01:33:46;;;;;;;13.87;9.77;;;10.40;99.90;;;;;;5080814;28;20221;-78
2023/05/15 01:36:18;;;;;;;12.10;9.40;;;10.40;99.90;;;;;;5097672;28;20205;-78
2023/05/15 01:38:50;;;;;;;12.47;9.30;;;10.50;99.90;;;;;;5092951;28;20206;-78
2023/05/15 01:41:26;;;;;;;12.87;9.27;;;10.50;99.90;;;;;;5077428;28;20664;-78
2023/05/15 01:44:00;;;;;;;12.10;9.17;;;10.50;99.90;;;;;;5098154;28;20225;-78
2023/05/15 01:46:29;;;;;;;11.70;8.50;;;10.40;99.90;;;;;;5082066;28;20221;-78
2023/05/15 01:48:58;;;;;;;11.93;9.27;;;10.40;99.90;;;;;;5076593;28;20325;-78
2023/05/15 01:51:27;;;;;;;10.60;8.93;;;10.40;99.90;;;;;;5077270;28;20203;-78
2023/05/15 01:53:57;;;;;;;12.60;9.17;;;10.50;99.90;;;;;;5077901;28;20210;-78
2023/05/15 01:56:25;;;;;;;12.30;9.20;;;10.40;99.90;;;;;;5092740;28;20206;-78
2023/05/15 01:58:54;;;;;;;15.10;9.40;;;10.40;99.90;;;;;;5097515;28;20292;-78
2023/05/15 02:01:23;;;;;;;13.10;9.47;;;10.40;99.90;;;;;;5097354;28;20202;-78
2023/05/15 02:03:51;;;;;;;13.00;8.73;;;10.30;99.90;;;;;;5098449;28;20213;-77
2023/05/15 02:06:18;;;;;;;11.67;9.40;;;10.20;99.90;;;;;;5096452;28;20202;-78
2023/05/15 02:08:48;;;;;;;13.10;9.13;;;10.20;99.90;;;;;;5097261;28;20660;-78
2023/05/15 02:11:15;;;;;;;13.93;9.90;;;10.20;99.90;;;;;;5096212;28;20197;-78
2023/05/15 02:13:42;;;;;;;11.47;9.17;;;10.30;99.90;;;;;;5082468;28;20653;-77
2023/05/15 02:16:10;;;;;;;14.67;9.50;;;10.10;99.90;;;;;;5083779;28;20224;-77
2023/05/15 02:18:37;;;;;;;12.00;9.17;;;10.10;99.90;;;;;;5094788;28;20676;-77
2023/05/15 02:21:04;;;;;;;14.23;9.40;;;10.10;99.90;;;;;;5093941;28;20202;-78
2023/05/15 02:23:31;;;;;;;14.43;9.33;;;10.20;99.90;;;;;;5095478;28;20217;-77
2023/05/15 02:26:12;;;;;;;13.27;9.20;;;10.20;99.90;;;;;;5096732;28;20225;-78
2023/05/15 02:28:47;;;;;;;12.37;9.23;;;10.00;99.90;;;;;;5096379;28;20564;-79
2023/05/15 02:31:24;;;;;;;17.30;11.33;;;10.20;99.90;;;;;;5082478;28;20612;-77
2023/05/15 02:33:58;;;;;;;16.13;11.50;;;10.30;99.90;;;;;;5075387;28;20691;-77
2023/05/15 02:36:29;;;;;;;16.23;10.83;;;10.30;99.90;;;;;;5088503;28;20295;-78
2023/05/15 02:38:58;;;;;;;12.40;9.23;;;10.40;99.90;;;;;;5094416;28;20201;-77
2023/05/15 02:41:26;;;;;;;13.93;9.70;;;10.30;99.90;;;;;;5094514;28;20210;-78
2023/05/15 02:43:55;;;;;;;14.03;9.33;;;10.10;99.90;;;;;;5095145;28;20224;-78
2023/05/15 02:46:24;;;;;;;12.63;9.00;;;10.20;99.90;;;;;;5094934;28;20205;-78
2023/05/15 02:48:52;;;;;;;15.73;9.47;;;10.30;99.90;;;;;;5094981;28;20342;-78
2023/05/15 02:51:19;;;;;;;11.87;9.47;;;10.10;99.90;;;;;;5093987;28;20206;-78
2023/05/15 02:53:46;;;;;;;13.03;9.87;;;10.10;99.90;;;;;;5094514;28;20229;-78
2023/05/15 02:56:13;;;;;;;13.13;9.60;;;10.10;99.90;;;;;;5097138;28;20655;-78
2023/05/15 02:58:40;;;;;;;14.23;9.67;;;10.10;99.90;;;;;;5096831;28;20201;-78
2023/05/15 03:01:07;;;;;;;13.03;9.07;;;10.00;99.90;;;;;;5096912;28;20212;-78
2023/05/15 03:03:35;;;;;;;12.50;8.83;;;10.00;99.90;;;;;;5096926;28;20695;-78
2023/05/15 03:06:02;;;;;;;12.97;9.43;;;10.10;99.90;;;;;;5096495;28;20198;-78
2023/05/15 03:08:29;;;;;;;14.80;10.40;;;10.20;99.90;;;;;;5096494;28;20210;-76
2023/05/15 03:10:56;;;;;;;12.57;9.67;;;10.20;99.90;;;;;;5095824;28;20201;-78
2023/05/15 03:13:23;;;;;;;12.83;9.90;;;10.30;99.90;;;;;;5097036;28;20222;-78
2023/05/15 03:15:49;;;;;;;12.03;9.83;;;10.20;99.90;;;;;;5094907;28;20198;-77
2023/05/15 03:18:17;;;;;;;12.10;9.73;;;10.10;99.90;;;;;;5093986;28;20578;-77
2023/05/15 03:20:46;;;;;;;21.17;9.20;;;10.20;99.90;;;;;;5093021;28;20224;-78
2023/05/15 03:23:12;;;;;;;15.73;9.90;;;10.10;99.90;;;;;;5093357;28;20304;-78
2023/05/15 03:25:39;;;;;;;13.90;10.10;;;10.00;99.90;;;;;;5093541;28;20211;-79
2023/05/15 03:28:06;;;;;;;15.33;10.93;;;10.10;99.90;;;;;;5093739;28;20201;-78
2023/05/15 03:30:33;;;;;;;13.53;10.23;;;10.20;99.90;;;;;;5093085;28;20287;-80
2023/05/15 03:33:02;;;;;;;13.43;9.73;;;10.30;99.90;;;;;;5092353;28;20235;-78
2023/05/15 03:35:29;;;;;;;14.57;10.37;;;10.20;99.90;;;;;;5092061;28;20245;-78
2023/05/15 03:37:57;;;;;;;13.40;9.43;;;10.30;99.90;;;;;;5092040;28;20202;-78
2023/05/15 03:40:24;;;;;;;12.63;9.77;;;10.30;99.90;;;;;;5092674;28;20305;-78
2023/05/15 03:42:52;;;;;;;13.37;10.47;;;10.20;99.90;;;;;;5092906;28;20217;-79
2023/05/15 03:45:19;;;;;;;12.87;9.27;;;10.20;99.90;;;;;;5093248;28;20215;-79
2023/05/15 03:47:47;;;;;;;13.33;9.53;;;10.20;99.90;;;;;;5093390;28;20201;-78
2023/05/15 03:50:14;;;;;;;12.30;9.70;;;10.20;99.90;;;;;;5093712;28;20247;-79
2023/05/15 03:52:40;;;;;;;13.10;9.63;;;10.30;99.90;;;;;;5092931;28;20316;-79
2023/05/15 03:55:09;;;;;;;13.83;10.00;;;10.40;99.90;;;;;;5093068;28;20652;-80
2023/05/15 03:57:36;;;;;;;11.80;9.33;;;10.70;99.90;;;;;;5092956;28;20208;-78
2023/05/15 04:00:08;;;;;;;13.50;9.10;;;10.90;99.90;;;;;;5093415;28;20204;-78
2023/05/15 04:02:35;;;;;;;14.47;9.57;;;10.90;99.90;;;;;;5093059;28;20630;-78
2023/05/15 04:05:02;;;;;;;14.37;9.60;;;10.90;99.90;;;;;;5093264;28;20206;-79
2023/05/15 04:07:33;;;;;;;14.10;9.50;;;11.50;99.90;;;;;;5093282;28;20202;-79
2023/05/15 04:10:00;;;;;;;13.60;9.70;;;11.90;99.90;;;;;;5093830;28;20292;-79
2023/05/15 04:12:29;;;;;;;12.33;9.83;;;11.70;99.90;;;;;;5092775;28;20233;-79
2023/05/15 04:14:56;;;;;;;11.17;9.40;;;11.10;99.90;;;;;;5093558;28;20854;-79
2023/05/15 04:17:23;;;;;;;12.43;9.43;;;11.10;99.90;;;;;;5093524;28;20208;-80
2023/05/15 04:19:50;;;;;;;10.77;8.83;;;11.20;99.90;;;;;;5093115;28;20208;-79
2023/05/15 04:22:17;;;;;;;12.67;9.47;;;11.10;99.90;;;;;;5092757;28;20198;-79
2023/05/15 04:24:43;;;;;;;12.23;9.20;;;11.20;99.90;;;;;;5091116;28;20630;-79
2023/05/15 04:27:10;;;;;;;14.20;9.57;;;11.20;99.90;;;;;;5092967;28;20324;-79
2023/05/15 04:29:38;;;;;;;11.80;9.23;;;11.30;99.90;;;;;;5092803;28;20293;-78
2023/05/15 04:32:05;;;;;;;12.20;9.43;;;11.40;99.90;;;;;;5092756;28;20193;-78
2023/05/15 04:34:32;;;;;;;13.97;9.37;;;11.50;99.90;;;;;;5093782;28;20205;-78
2023/05/15 04:37:00;;;;;;;12.53;9.40;;;11.60;99.90;;;;;;5094845;28;20240;-79
2023/05/15 04:39:26;;;;;;;12.90;10.30;;;11.60;99.90;;;;;;5096612;28;20224;-79
2023/05/15 04:41:53;;;;;;;12.37;9.90;;;11.70;99.90;;;;;;5096659;28;20220;-79
2023/05/15 04:44:20;;;;;;;11.90;9.47;;;11.80;99.90;;;;;;5097389;28;20658;-79
2023/05/15 04:46:48;;;;;;;13.23;9.67;;;11.90;99.90;;;;;;5097454;28;20206;-79
2023/05/15 04:49:15;;;;;;;12.40;9.53;;;12.00;99.90;;;;;;5097998;28;20303;-79
2023/05/15 04:51:42;;;;;;;11.93;9.07;;;12.10;99.90;;;;;;5088532;28;20298;-79
2023/05/15 04:54:09;;;;;;;13.43;9.30;;;12.20;99.90;;;;;;5081926;28;20236;-78
2023/05/15 04:56:36;;;;;;;15.53;9.67;;;12.40;99.90;;;;;;5097980;28;20201;-79
2023/05/15 04:59:02;;;;;;;13.70;9.73;;;12.50;99.90;;;;;;5097937;28;20214;-78
2023/05/15 05:01:31;;;;;;;12.03;9.67;;;12.50;99.90;;;;;;5097192;28;20298;-79
2023/05/15 05:04:00;;;;;;;13.03;10.57;;;12.50;99.90;;;;;;5096940;28;20229;-78
2023/05/15 05:06:26;;;;;;;12.53;10.23;;;12.60;99.90;;;;;;5086829;28;20724;-80
2023/05/15 05:08:53;;;;;;;11.57;9.00;;;12.70;99.90;;;;;;5079556;28;20308;-79
2023/05/15 05:11:21;;;;;;;12.63;9.47;;;12.80;99.90;;;;;;5096659;28;20285;-79
2023/05/15 05:13:48;;;;;;;13.37;9.40;;;13.00;99.90;;;;;;5096141;28;20221;-79
2023/05/15 05:16:15;;;;;;;12.17;9.00;;;13.10;99.90;;;;;;5076145;28;20206;-79
2023/05/15 05:18:42;;;;;;;14.20;9.50;;;13.20;99.90;;;;;;5075974;28;20202;-79
2023/05/15 05:21:10;;;;;;;11.33;8.77;;;13.20;99.90;;;;;;5081564;28;20229;-79
2023/05/15 05:23:37;;;;;;;12.37;9.60;;;13.40;99.90;;;;;;5095775;28;20271;-80
2023/05/15 05:26:04;;;;;;;12.60;9.43;;;13.40;99.90;;;;;;5097083;28;20194;-79
2023/05/15 05:28:31;;;;;;;12.03;8.83;;;13.40;99.90;;;;;;5096946;28;20194;-79
2023/05/15 05:30:57;;;;;;;11.40;9.23;;;13.70;99.90;;;;;;5096933;28;20273;-79
2023/05/15 05:33:24;;;;;;;11.73;8.93;;;13.80;99.90;;;;;;5096358;28;20679;-79
2023/05/15 05:35:51;;;;;;;11.43;9.03;;;14.00;99.90;;;;;;5079192;28;20686;-80
2023/05/15 05:38:19;;;;;;;11.43;8.97;;;14.00;99.90;;;;;;5078036;28;20686;-79
2023/05/15 05:40:46;;;;;;;13.93;8.60;;;14.20;99.90;;;;;;5096968;28;20237;-79
2023/05/15 05:43:13;;;;;;;11.83;9.37;;;14.30;99.90;;;;;;5097036;28;20217;-79
2023/05/15 05:45:40;;;;;;;12.07;9.30;;;14.50;99.90;;;;;;5096667;28;20721;-79
2023/05/15 05:48:07;;;;;;;12.27;9.37;;;14.50;99.90;;;;;;5096437;28;20683;-79
2023/05/15 05:50:34;;;;;;;14.37;9.47;;;14.50;99.90;;;;;;5096178;28;20251;-79
2023/05/15 05:53:00;;;;;;;12.77;9.90;;;14.50;99.90;;;;;;5083415;28;20269;-79
2023/05/15 05:55:28;;;;;;;11.63;9.67;;;14.60;99.90;;;;;;5075828;28;20210;-79
2023/05/15 05:57:55;;;;;;;12.40;10.00;;;14.70;99.90;;;;;;5075451;28;20202;-79
2023/05/15 06:00:25;;;;;;;13.27;9.77;;;14.70;99.90;;;;;;5075490;28;20266;-78
2023/05/15 06:02:57;;;;;;;11.87;10.23;;;15.40;99.90;;;;;;5091306;28;20221;-78
2023/05/15 06:05:24;;;;;;;14.63;10.47;;;15.10;99.90;;;;;;5095795;28;20194;-78
2023/05/15 06:07:51;;;;;;;14.57;11.33;;;15.30;99.90;;;;;;5089452;28;20206;-79
2023/05/15 06:10:18;;;;;;;14.33;10.60;;;15.30;99.90;;;;;;5095954;28;20197;-79
2023/05/15 06:12:46;;;;;;;13.47;10.90;;;15.00;99.90;;;;;;5095401;28;20221;-79
2023/05/15 06:15:13;;;;;;;13.20;10.87;;;14.80;99.90;;;;;;5094509;28;20212;-79
2023/05/15 06:17:40;;;;;;;14.83;11.27;;;15.00;99.90;;;;;;5078106;28;20202;-79
2023/05/15 06:20:08;;;;;;;12.50;10.70;;;15.10;99.90;;;;;;5082038;28;20206;-77
2023/05/15 06:22:36;;;;;;;13.47;11.33;;;15.10;99.90;;;;;;5080323;28;20222;-79
2023/05/15 06:25:04;;;;;;;15.03;10.93;;;15.40;99.90;;;;;;5092292;28;20641;-80
2023/05/15 06:27:30;;;;;;;13.27;10.57;;;15.20;99.90;;;;;;5100697;28;20216;-79
2023/05/15 06:29:58;;;;;;;12.13;10.10;;;15.20;99.90;;;;;;5090905;28;20640;-79
2023/05/15 06:32:25;;;;;;;14.77;10.70;;;15.20;99.90;;;;;;5079910;28;20233;-80
2023/05/15 06:34:54;;;;;;;13.73;10.93;;;15.00;99.90;;;;;;5089330;28;20226;-77
2023/05/15 06:37:21;;;;;;;12.00;10.18;;;15.20;99.90;;;;;;5101159;28;20688;-78
2023/05/15 06:39:47;;;;;;;15.33;10.60;;;15.20;99.90;;;;;;5090363;28;20206;-78
2023/05/15 06:42:15;;;;;;;14.87;11.53;;;15.30;99.90;;;;;;5084373;28;20301;-78
2023/05/15 06:44:41;;;;;;;14.23;10.70;;;15.10;99.90;;;;;;5098890;28;20258;-77
2023/05/15 06:47:10;;;;;;;12.97;10.87;;;15.20;99.90;;;;;;5098935;28;20578;-78
2023/05/15 06:49:36;;;;;;;13.03;10.47;;;15.40;99.90;;;;;;5099744;28;20240;-77
2023/05/15 06:52:03;;;;;;;12.87;9.90;;;15.50;99.90;;;;;;5100147;28;20197;-79
2023/05/15 06:54:30;;;;;;;11.77;10.43;;;15.60;99.90;;;;;;5100108;28;20248;-79
2023/05/15 06:56:57;;;;;;;12.77;10.52;;;15.80;99.90;;;;;;5099910;28;20202;-76
2023/05/15 06:59:24;;;;;;;12.20;9.77;;;16.00;99.90;;;;;;5098561;28;20292;-79
2023/05/15 07:01:51;;;;;;;12.90;10.63;;;15.80;99.90;;;;;;5099334;28;20209;-79
2023/05/15 07:04:19;;;;;;;13.80;10.00;;;15.90;99.90;;;;;;5099546;28;20581;-77
2023/05/15 07:06:46;;;;;;;15.40;10.60;;;15.80;99.90;;;;;;5097490;28;20247;-77
2023/05/15 07:09:14;;;;;;;16.13;10.75;;;16.00;99.90;;;;;;5099770;28;20205;-79
2023/05/15 07:11:41;;;;;;;11.73;10.38;;;16.10;99.90;;;;;;5098971;28;20202;-79
2023/05/15 07:14:07;;;;;;;14.60;10.43;;;16.00;99.90;;;;;;5099842;28;20718;-78
2023/05/15 07:16:34;;;;;;;14.07;10.32;;;16.10;99.90;;;;;;5087592;28;20206;-77
2023/05/15 07:19:01;;;;;;;14.45;10.77;;;16.10;99.90;;;;;;5079941;28;20253;-80
2023/05/15 07:21:29;;;;;;;12.10;10.25;;;15.90;99.90;;;;;;5095372;28;20216;-76
2023/05/15 07:23:56;;;;;;;14.05;10.48;;;16.10;99.90;;;;;;5099639;28;20304;-79
2023/05/15 07:26:23;;;;;;;11.65;10.18;;;16.10;99.90;;;;;;5100656;28;20265;-79
2023/05/15 07:28:50;;;;;;;13.60;9.63;;;16.20;99.90;;;;;;5099202;28;20288;-80
2023/05/15 07:31:17;;;;;;;13.80;10.20;;;16.20;99.90;;;;;;5099168;28;20694;-78
2023/05/15 07:33:44;;;;;;;12.90;10.10;;;16.20;99.90;;;;;;5099034;28;20726;-80
2023/05/15 07:36:10;;;;;;;11.25;9.50;;;16.30;99.90;;;;;;5099110;28;20587;-78
2023/05/15 07:38:38;;;;;;;14.05;9.95;;;16.40;99.90;;;;;;5099099;28;20576;-77
2023/05/15 07:41:05;;;;;;;14.32;10.32;;;16.20;99.90;;;;;;5090077;28;20220;-79
2023/05/15 07:43:32;;;;;;;13.52;10.25;;;16.50;99.90;;;;;;5098758;28;20217;-78
2023/05/15 07:45:59;;;;;;;11.10;9.90;;;16.80;99.90;;;;;;5098758;28;20205;-76
2023/05/15 07:48:26;;;;;;;11.23;9.95;;;16.80;99.90;;;;;;5099122;28;20201;-77
2023/05/15 07:50:54;;;;;;;12.63;9.82;;;16.90;99.90;;;;;;5098663;28;20212;-77
2023/05/15 07:53:21;;;;;;;12.30;9.60;;;17.10;99.90;;;;;;5097270;28;20233;-78
2023/05/15 07:55:49;;;;;;;11.38;9.13;;;17.00;99.90;;;;;;5096062;28;20206;-77
2023/05/15 07:58:16;;;;;;;10.65;8.60;;;17.00;99.90;;;;;;5097602;28;20640;-76
2023/05/15 08:00:43;;;;;;;10.90;8.52;;;17.10;99.90;;;;;;5096402;28;20283;-78
2023/05/15 08:03:10;;;;;;;12.25;9.50;;;16.90;99.90;;;;;;5094255;28;20300;-78
2023/05/15 08:05:40;;;;;;;11.32;9.10;;;17.10;99.90;;;;;;5096105;28;20817;-79
2023/05/15 08:08:07;;;;;;;10.88;8.93;;;17.30;99.90;;;;;;5096908;28;20201;-79
2023/05/15 08:10:33;;;;;;;9.82;8.82;;;17.40;99.90;;;;;;5095821;28;20677;-78
2023/05/15 08:13:02;;;;;;;14.85;9.95;;;17.50;99.90;;;;;;5095238;28;20249;-78
2023/05/15 08:15:29;;;;;;;11.75;8.80;;;17.40;99.90;;;;;;5095277;28;20224;-79
2023/05/15 08:17:55;;;;;;;13.27;9.18;;;17.40;99.90;;;;;;5095960;28;20224;-80
2023/05/15 08:20:22;;;;;;;14.77;10.48;;;17.70;99.90;;;;;;5095757;28;20221;-77
2023/05/15 08:22:49;;;;;;;11.98;9.75;;;17.80;99.90;;;;;;5094556;28;20232;-78
2023/05/15 08:25:16;;;;;;;12.23;9.90;;;17.70;99.90;;;;;;5095987;28;20974;-79
2023/05/15 08:27:43;;;;;;;12.07;9.45;;;17.70;99.90;;;;;;5095044;28;20714;-78
2023/05/15 08:30:13;;;;;;;12.75;9.93;;;17.60;81.60;;;;;;5094763;28;20216;-78
2023/05/15 08:32:39;;;;;;;12.68;10.30;;;17.70;99.90;;;;;;5096067;28;20217;-80
2023/05/15 08:35:07;;;;;;;12.82;10.07;;;17.90;1.00;;;;;;5089567;28;20245;-80
2023/05/15 08:37:34;;;;;;;9.95;8.57;;;17.60;1.00;;;;;;5075898;28;20208;-80
2023/05/15 08:40:01;;;;;;;16.23;9.68;;;17.80;1.00;;;;;;5077810;28;20206;-77
2023/05/15 08:42:33;;;;;;;13.20;10.35;;;17.90;1.00;;;;;;5077678;28;20313;-78
2023/05/15 08:45:00;;;;;;;12.30;9.45;;;18.10;1.00;;;;;;5077826;28;20236;-78
2023/05/15 08:47:29;;;;;;;10.65;9.20;;;18.20;99.90;;;;;;5086629;28;20213;-78
2023/05/15 08:50:03;;;;;;;12.30;10.32;;;18.20;1.00;;;;;;5097712;28;20269;-78
2023/05/15 08:52:42;;;;;;;12.65;9.35;;;18.10;99.90;;;;;;5096767;28;20292;-78
2023/05/15 08:55:10;;;;;;;11.77;9.20;;;18.30;99.90;;;;;;5096793;28;20224;-77
2023/05/15 08:57:38;;;;;;;10.18;8.75;;;18.50;1.00;;;;;;5096067;28;20206;-76
2023/05/15 09:00:07;;;;;;;10.00;8.15;;;18.80;1.00;;;;;;5097618;28;20296;-76
2023/05/15 09:02:36;;;;;;;11.88;8.75;;;19.20;99.90;;;;;;5078863;28;20294;-77
2023/05/15 09:05:03;;;;;;;11.05;8.63;;;19.20;1.00;;;;;;5096612;28;20198;-76
2023/05/15 09:07:31;;;;;;;9.13;8.10;;;19.60;1.00;;;;;;5097441;28;20202;-77
2023/05/15 09:09:58;;;;;;;12.40;8.75;;;19.70;1.00;;;;;;5098218;28;20548;-79
2023/05/15 09:12:26;;;;;;;9.15;8.25;;;20.20;99.90;;;;;;5095712;28;20224;-77
2023/05/15 09:15:08;;;;;;;10.85;7.63;;;20.60;99.90;;;;;;5096591;28;20222;-78
2023/05/15 09:17:36;;;;;;;11.02;7.93;;;21.00;1.00;;;;;;5097016;28;20182;-79
2023/05/15 09:20:07;;;;;;;9.60;8.32;;;21.10;1.00;;;;;;5096229;28;20202;-79
2023/05/15 09:22:35;;;;;;;9.48;8.15;;;20.70;99.90;;;;;;5096580;28;20217;-80
2023/05/15 09:25:03;;;;;;;11.75;8.73;;;20.20;99.90;;;;;;5101618;28;20197;-80
2023/05/15 09:27:30;;;;;;;10.45;8.20;;;20.50;99.90;;;;;;5100328;28;20224;-80
2023/05/15 09:30:09;;;;;;;10.27;8.10;;;20.40;1.00;;;;;;5102098;28;20274;-78
2023/05/15 09:32:38;;;;;;;12.68;8.30;;;20.50;99.90;;;;;;5100249;28;20271;-77
2023/05/15 09:35:24;;;;;;;11.32;8.20;;;20.60;7.40;;;;;;5100587;28;20232;-80
2023/05/15 09:37:58;;;;;;;10.63;8.02;;;20.40;1.00;;;;;;5099915;28;20273;-77
2023/05/15 09:40:29;;;;;;;9.73;7.95;;;20.40;1.00;;;;;;5100719;28;20210;-79
2023/05/15 09:42:55;;;;;;;9.55;7.55;;;21.30;1.00;;;;;;5100171;28;20726;-77
2023/05/15 09:45:24;;;;;;;10.60;7.70;;;21.40;1.00;;;;;;5100945;28;20197;-77
2023/05/15 09:47:52;;;;;;;8.32;6.93;;;21.20;99.90;;;;;;5100808;28;20567;-76
2023/05/15 09:50:23;;;;;;;11.02;7.63;;;21.80;99.90;;;;;;5101141;28;20212;-79
2023/05/15 09:52:50;;;;;;;7.95;7.15;;;22.30;99.90;;;;;;5099734;28;20635;-78
2023/05/15 09:55:18;;;;;;;8.80;7.30;;;21.70;1.00;;;;;;5100124;28;20243;-79
2023/05/15 09:57:45;;;;;;;8.45;6.90;;;21.80;1.00;;;;;;5101052;28;20251;-76
2023/05/15 10:00:13;;;;;;;9.38;6.88;;;22.20;1.00;;;;;;5101464;28;20242;-78
2023/05/15 10:02:41;;;;;;;10.07;7.70;;;23.00;1.00;;;;;;5100699;28;20218;-78
2023/05/15 10:05:11;;;;;;;10.80;7.10;;;23.00;1.00;;;;;;5100423;28;20194;-77
2023/05/15 10:07:38;;;;;;;8.65;7.22;;;22.80;1.00;;;;;;5100586;28;20648;-78
2023/05/15 10:10:06;;;;;;;13.65;7.45;;;22.60;1.00;;;;;;5099327;28;20624;-77
2023/05/15 10:12:35;;;;;;;9.50;7.47;;;22.20;99.90;;;;;;5099636;28;20308;-78
2023/05/15 10:15:03;;;;;;;9.02;7.57;;;22.20;99.90;;;;;;5099105;28;20635;-77
2023/05/15 10:17:34;;;;;;;9.30;8.15;;;22.10;99.90;;;;;;5099157;28;20201;-77
2023/05/15 10:20:05;;;;;;;9.43;7.45;;;21.80;99.90;;;;;;5098819;28;20269;-77
2023/05/15 10:22:38;;;;;;;12.20;7.85;;;21.70;99.90;;;;;;5098970;28;20221;-76
2023/05/15 10:25:13;;;;;;;9.55;7.97;;;21.90;99.90;;;;;;5100890;28;20201;-78
2023/05/15 10:27:41;;;;;;;7.43;6.70;;;21.50;42.00;;;;;;5094269;28;20197;-78
2023/05/15 10:30:10;;;;;;;8.40;7.28;;;21.30;1.00;;;;;;5097257;28;20202;-77
2023/05/15 10:32:40;;;;;;;9.93;8.20;;;21.00;1.00;;;;;;5089829;28;20337;-78
2023/05/15 10:35:12;;;;;;;9.93;7.93;;;21.10;99.90;;;;;;5095983;28;20698;-79
2023/05/15 10:37:40;;;;;;;10.13;7.80;;;21.20;1.00;;;;;;5098475;28;20197;-79
2023/05/15 10:40:10;;;;;;;9.32;7.18;;;21.80;1.00;;;;;;5085844;28;20206;-79
2023/05/15 10:42:38;;;;;;;13.05;7.88;;;22.60;1.00;;;;;;5078276;28;20309;-77
2023/05/15 10:45:08;;;;;;;10.88;8.30;;;22.40;1.00;;;;;;5090088;28;20216;-77
2023/05/15 10:47:36;;;;;;;9.73;8.32;;;22.60;1.00;;;;;;5097335;28;20216;-78
2023/05/15 10:50:04;;;;;;;12.00;8.23;;;22.70;1.00;;;;;;5097381;28;20221;-76
2023/05/15 10:52:32;;;;;;;11.73;8.65;;;22.90;1.00;;;;;;5081082;28;20267;-78
2023/05/15 10:55:00;;;;;;;11.27;8.18;;;22.80;1.00;;;;;;5087171;28;20638;-77
2023/05/15 10:57:29;;;;;;;12.00;8.60;;;22.90;1.00;;;;;;5090726;28;20208;-77
2023/05/15 10:59:56;;;;;;;10.52;8.85;;;22.90;1.00;;;;;;5096678;28;20208;-79
2023/05/15 11:02:24;;;;;;;10.13;8.75;;;22.60;1.00;;;;;;5079267;28;20201;-76
2023/05/15 11:04:55;;;;;;;10.68;8.93;;;23.10;1.00;;;;;;5099141;28;20197;-78
2023/05/15 11:07:24;;;;;;;9.35;8.30;;;23.40;99.90;;;;;;5099361;28;20206;-79
2023/05/15 11:09:52;;;;;;;10.88;8.98;;;23.60;99.90;;;;;;5088422;28;20206;-79
2023/05/15 11:12:20;;;;;;;11.75;8.43;;;23.30;99.90;;;;;;5091851;28;20296;-76
2023/05/15 11:15:20;;;;;;;12.32;8.15;;;23.70;99.90;;;;;;5099366;28;20718;-77
2023/05/15 11:18:04;;;;;;;8.35;7.10;;;23.60;1.00;;;;;;5078879;28;20251;-77
2023/05/15 11:20:39;;;;;;;9.10;7.80;;;23.20;1.00;;;;;;5087718;28;20201;-80
2023/05/15 11:23:06;;;;;;;12.73;7.38;;;23.50;1.00;;;;;;5100424;28;20235;-77
2023/05/15 11:25:34;;;;;;;9.27;7.28;;;23.50;1.00;;;;;;5098765;28;20663;-78
2023/05/15 11:28:04;;;;;;;9.55;7.57;;;23.80;1.00;;;;;;5099012;28;20236;-78
2023/05/15 11:30:38;;;;;;;9.52;6.78;;;23.80;1.00;;;;;;5098442;28;20206;-77
2023/05/15 11:33:10;;;;;;;9.43;6.90;;;23.70;1.00;;;;;;5099422;28;20713;-78
2023/05/15 11:35:40;;;;;;;9.35;6.45;;;24.00;1.00;;;;;;5099418;28;20257;-77
2023/05/15 11:38:12;;;;;;;9.75;6.45;;;23.80;1.00;;;;;;5080777;28;20212;-78
2023/05/15 11:40:51;;;;;;;11.27;6.72;;;24.10;99.90;;;;;;5078027;28;20214;-77
2023/05/15 11:43:21;;;;;;;10.20;6.88;;;24.20;99.90;;;;;;5078409;28;20321;-78
2023/05/15 11:45:54;;;;;;;7.60;6.07;;;24.20;99.90;;;;;;5095212;28;20237;-77
2023/05/15 11:48:22;;;;;;;7.55;5.97;;;24.50;99.90;;;;;;5098088;28;20323;-78
2023/05/15 11:50:52;;;;;;;6.95;5.88;;;24.90;99.90;;;;;;5094817;28;20202;-78
2023/05/15 11:53:19;;;;;;;8.63;5.82;;;24.20;1.00;;;;;;5098345;28;20217;-76
2023/05/15 11:55:46;;;;;;;9.70;6.82;;;24.00;1.00;;;;;;5098168;28;20224;-79
2023/05/15 11:58:14;;;;;;;9.02;5.95;;;23.40;1.00;;;;;;5097850;28;20197;-78
2023/05/15 12:00:43;;;;;;;7.18;5.72;;;23.60;1.00;;;;;;5098385;28;20201;-78
2023/05/15 12:03:15;;;;;;;8.02;5.10;;;23.40;1.00;;;;;;5096967;28;20225;-80
2023/05/15 12:05:43;;;;;;;6.20;5.60;;;23.30;1.00;;;;;;5097318;28;20225;-78
2023/05/15 12:08:11;;;;;;;7.43;5.57;;;22.80;1.00;;;;;;5083986;28;20206;-77
2023/05/15 12:10:41;;;;;;;6.65;6.00;;;22.80;1.00;;;;;;5082806;28;20201;-76
2023/05/15 12:13:08;;;;;;;6.78;5.68;;;23.40;1.00;;;;;;5100748;28;20294;-78
2023/05/15 12:15:37;;;;;;;8.38;5.45;;;23.60;1.00;;;;;;5098292;28;20221;-78
2023/05/15 12:18:07;;;;;;;6.57;5.80;;;23.30;1.00;;;;;;5098524;28;20210;-77
2023/05/15 12:20:35;;;;;;;9.10;6.00;;;22.70;1.00;;;;;;5099563;28;20588;-78
2023/05/15 12:23:02;;;;;;;7.00;6.07;;;22.50;1.00;;;;;;5099365;28;20245;-78
2023/05/15 12:25:30;;;;;;;8.90;5.85;;;22.40;1.00;;;;;;5099379;28;20550;-78
2023/05/15 12:27:58;;;;;;;10.55;6.03;;;22.50;1.00;;;;;;5098585;28;20731;-78
2023/05/15 12:30:25;;;;;;;8.25;6.22;;;22.40;1.00;;;;;;5098000;28;20201;-78
2023/05/15 12:32:52;;;;;;;8.18;5.95;;;22.50;1.00;;;;;;5097477;28;20239;-78
2023/05/15 12:35:20;;;;;;;6.18;5.57;;;22.10;1.00;;;;;;5098351;28;20304;-75
2023/05/15 12:37:47;;;;;;;8.80;6.03;;;22.00;99.90;;;;;;5097541;28;20216;-77
2023/05/15 12:40:14;;;;;;;9.77;6.47;;;21.90;99.90;;;;;;5097462;28;20232;-78
2023/05/15 12:42:42;;;;;;;7.68;6.30;;;22.00;99.90;;;;;;5098236;28;20661;-76
2023/05/15 12:45:14;;;;;;;7.80;6.82;;;22.20;1.00;;;;;;5098329;28;20201;-77